WZZ411 EPGD-ENAL
Flight info
| Callsign | WZZ411 |
|---|---|
| Flight time | 1h 37m |
| Altitude | 38000 |
| Route | VAPOS N133 PENOR DCT KSD DCT MASEV DCT EVTOG DCT VAMTO DCT TESLU DCT VEPUL |
| Aircraft | A321/M-SDE1E2E3FGIJ1J4RWXY/LB1 |
Departure
| Time | 2026-04-22 06:12 |
|---|---|
| Airport | Gdańsk Lech Wałęsa Airport (EPGD) |
Arrival
| Time | 2026-04-22 07:49 |
|---|---|
| Airport | Ålesund Airport (ENAL) |
| Time | Latitude | Longitude | Altitude | Speed | Heading |
|---|---|---|---|---|---|
| 2026-04-22 05:41 | 54.38095 | 18.46673 | 460 ft | 0 kts | 23° |
| 2026-04-22 05:44 | 54.38095 | 18.46672 | 460 ft | 0 kts | 23° |
| 2026-04-22 05:50 | 54.38094 | 18.46672 | 460 ft | 0 kts | 23° |
| 2026-04-22 05:58 | 54.38093 | 18.46671 | 459 ft | 2 kts | 25° |
| 2026-04-22 05:59 | 54.38084 | 18.46661 | 457 ft | 3 kts | 40° |
| 2026-04-22 05:59 | 54.38066 | 18.46628 | 460 ft | 4 kts | 57° |
| 2026-04-22 05:59 | 54.38057 | 18.46604 | 457 ft | 1 kts | 58° |
| 2026-04-22 05:59 | 54.38056 | 18.46600 | 457 ft | 2 kts | 58° |
| 2026-04-22 06:01 | 54.38053 | 18.46609 | 460 ft | 2 kts | 113° |
| 2026-04-22 06:01 | 54.38015 | 18.46582 | 460 ft | 10 kts | 194° |
| 2026-04-22 06:02 | 54.37935 | 18.46627 | 459 ft | 15 kts | 127° |
| 2026-04-22 06:02 | 54.37881 | 18.46837 | 459 ft | 23 kts | 113° |
| 2026-04-22 06:02 | 54.37823 | 18.47082 | 460 ft | 21 kts | 115° |
| 2026-04-22 06:02 | 54.37766 | 18.47305 | 460 ft | 20 kts | 112° |
| 2026-04-22 06:03 | 54.37713 | 18.47518 | 461 ft | 18 kts | 113° |
| 2026-04-22 06:03 | 54.37666 | 18.47711 | 466 ft | 17 kts | 113° |
| 2026-04-22 06:03 | 54.37620 | 18.47896 | 470 ft | 17 kts | 113° |
| 2026-04-22 06:03 | 54.37576 | 18.48075 | 473 ft | 16 kts | 112° |
| 2026-04-22 06:04 | 54.37535 | 18.48242 | 476 ft | 14 kts | 112° |
| 2026-04-22 06:04 | 54.37499 | 18.48390 | 479 ft | 12 kts | 112° |
| 2026-04-22 06:04 | 54.37468 | 18.48516 | 481 ft | 11 kts | 112° |
| 2026-04-22 06:04 | 54.37441 | 18.48623 | 481 ft | 9 kts | 112° |
| 2026-04-22 06:05 | 54.37418 | 18.48718 | 491 ft | 8 kts | 112° |
| 2026-04-22 06:05 | 54.37396 | 18.48809 | 485 ft | 8 kts | 112° |
| 2026-04-22 06:05 | 54.37372 | 18.48905 | 486 ft | 9 kts | 112° |
| 2026-04-22 06:05 | 54.37347 | 18.49007 | 493 ft | 10 kts | 112° |
| 2026-04-22 06:06 | 54.37320 | 18.49121 | 494 ft | 11 kts | 112° |
| 2026-04-22 06:06 | 54.37289 | 18.49244 | 492 ft | 12 kts | 115° |
| 2026-04-22 06:06 | 54.37219 | 18.49267 | 493 ft | 12 kts | 203° |
| 2026-04-22 06:06 | 54.37157 | 18.49159 | 491 ft | 14 kts | 248° |
| 2026-04-22 06:07 | 54.37168 | 18.49003 | 495 ft | 5 kts | 292° |
| 2026-04-22 06:07 | 54.37169 | 18.49002 | 495 ft | 0 kts | 292° |
| 2026-04-22 06:11 | 54.37169 | 18.49001 | 495 ft | 1 kts | 292° |
| 2026-04-22 06:11 | 54.37206 | 18.48849 | 489 ft | 45 kts | 292° |
| 2026-04-22 06:11 | 54.37433 | 18.47932 | 470 ft | 122 kts | 293° |
| 2026-04-22 06:12 | 54.37837 | 18.46298 | 680 ft | 157 kts | 292° |
| 2026-04-22 06:12 | 54.38241 | 18.44647 | 1662 ft | 148 kts | 296° |
| 2026-04-22 06:12 | 54.38658 | 18.42971 | 2287 ft | 164 kts | 297° |
| 2026-04-22 06:12 | 54.39135 | 18.41060 | 2694 ft | 185 kts | 297° |
| 2026-04-22 06:13 | 54.39673 | 18.38897 | 3022 ft | 209 kts | 296° |
| 2026-04-22 06:13 | 54.40279 | 18.36454 | 3425 ft | 234 kts | 296° |
| 2026-04-22 06:13 | 54.40927 | 18.33824 | 4097 ft | 246 kts | 296° |
| 2026-04-22 06:13 | 54.41602 | 18.31069 | 4942 ft | 253 kts | 297° |
| 2026-04-22 06:14 | 54.42312 | 18.28267 | 5773 ft | 257 kts | 303° |
| 2026-04-22 06:14 | 54.43452 | 18.25962 | 6599 ft | 253 kts | 329° |
| 2026-04-22 06:14 | 54.44944 | 18.24355 | 7445 ft | 254 kts | 333° |
| 2026-04-22 06:14 | 54.46447 | 18.22786 | 8289 ft | 257 kts | 333° |
| 2026-04-22 06:15 | 54.47981 | 18.21174 | 9151 ft | 260 kts | 332° |
| 2026-04-22 06:15 | 54.49536 | 18.19528 | 10027 ft | 263 kts | 332° |
| 2026-04-22 06:15 | 54.51120 | 18.17850 | 10615 ft | 276 kts | 332° |
| 2026-04-22 06:15 | 54.52831 | 18.16045 | 10860 ft | 299 kts | 332° |
| 2026-04-22 06:16 | 54.54632 | 18.14136 | 11330 ft | 311 kts | 332° |
| 2026-04-22 06:16 | 54.56500 | 18.12152 | 12054 ft | 316 kts | 332° |
| 2026-04-22 06:16 | 54.58387 | 18.10143 | 12788 ft | 321 kts | 332° |
| 2026-04-22 06:16 | 54.60232 | 18.08006 | 13517 ft | 327 kts | 327° |
| 2026-04-22 06:17 | 54.62057 | 18.05605 | 14224 ft | 331 kts | 327° |
| 2026-04-22 06:17 | 54.63906 | 18.03181 | 14846 ft | 335 kts | 327° |
| 2026-04-22 06:17 | 54.65779 | 18.00730 | 15498 ft | 340 kts | 327° |
| 2026-04-22 06:17 | 54.67679 | 17.98242 | 16148 ft | 344 kts | 327° |
| 2026-04-22 06:18 | 54.69609 | 17.95719 | 16807 ft | 349 kts | 327° |
| 2026-04-22 06:18 | 54.71556 | 17.93174 | 17450 ft | 354 kts | 327° |
| 2026-04-22 06:18 | 54.73532 | 17.90587 | 18098 ft | 358 kts | 327° |
| 2026-04-22 06:18 | 54.75507 | 17.87995 | 18697 ft | 363 kts | 327° |
| 2026-04-22 06:19 | 54.77534 | 17.85327 | 19253 ft | 367 kts | 327° |
| 2026-04-22 06:19 | 54.79629 | 17.82757 | 19800 ft | 368 kts | 334° |
| 2026-04-22 06:19 | 54.81926 | 17.80779 | 20367 ft | 369 kts | 340° |
| 2026-04-22 06:19 | 54.84286 | 17.78933 | 20937 ft | 373 kts | 340° |
| 2026-04-22 06:20 | 54.86664 | 17.77071 | 21510 ft | 377 kts | 340° |
| 2026-04-22 06:20 | 54.89067 | 17.75186 | 22085 ft | 381 kts | 340° |
| 2026-04-22 06:20 | 54.91468 | 17.73297 | 22655 ft | 384 kts | 340° |
| 2026-04-22 06:20 | 54.93918 | 17.71364 | 23203 ft | 388 kts | 340° |
| 2026-04-22 06:21 | 54.96387 | 17.69411 | 23736 ft | 392 kts | 340° |
| 2026-04-22 06:21 | 54.98886 | 17.67439 | 24190 ft | 395 kts | 340° |
| 2026-04-22 06:21 | 55.01422 | 17.65480 | 24643 ft | 398 kts | 341° |
| 2026-04-22 06:21 | 55.03973 | 17.63540 | 25057 ft | 402 kts | 341° |
| 2026-04-22 06:22 | 55.06551 | 17.61589 | 25490 ft | 405 kts | 341° |
| 2026-04-22 06:22 | 55.09145 | 17.59622 | 25918 ft | 408 kts | 341° |
| 2026-04-22 06:22 | 55.11760 | 17.57629 | 26344 ft | 411 kts | 340° |
| 2026-04-22 06:22 | 55.14396 | 17.55612 | 26771 ft | 414 kts | 340° |
| 2026-04-22 06:23 | 55.17046 | 17.53579 | 27188 ft | 417 kts | 340° |
| 2026-04-22 06:23 | 55.19687 | 17.51542 | 27601 ft | 420 kts | 340° |
| 2026-04-22 06:23 | 55.22383 | 17.49453 | 28014 ft | 423 kts | 340° |
| 2026-04-22 06:23 | 55.25087 | 17.47324 | 28424 ft | 427 kts | 340° |
| 2026-04-22 06:24 | 55.30501 | 17.42991 | 29227 ft | 432 kts | 339° |
| 2026-04-22 06:24 | 55.33253 | 17.40779 | 29594 ft | 435 kts | 339° |
| 2026-04-22 06:24 | 55.36028 | 17.38549 | 29966 ft | 438 kts | 339° |
| 2026-04-22 06:25 | 55.38811 | 17.36321 | 30372 ft | 439 kts | 339° |
| 2026-04-22 06:25 | 55.41575 | 17.34115 | 30708 ft | 441 kts | 339° |
| 2026-04-22 06:25 | 55.44385 | 17.31870 | 31059 ft | 443 kts | 339° |
| 2026-04-22 06:25 | 55.47203 | 17.29610 | 31408 ft | 445 kts | 339° |
| 2026-04-22 06:26 | 55.50034 | 17.27332 | 31771 ft | 446 kts | 339° |
| 2026-04-22 06:26 | 55.52854 | 17.25053 | 32239 ft | 445 kts | 340° |
| 2026-04-22 06:26 | 55.55638 | 17.22795 | 32728 ft | 443 kts | 340° |
| 2026-04-22 06:26 | 55.58439 | 17.20525 | 33204 ft | 441 kts | 340° |
| 2026-04-22 06:27 | 55.61206 | 17.18286 | 33666 ft | 440 kts | 340° |
| 2026-04-22 06:27 | 55.63985 | 17.16031 | 34111 ft | 438 kts | 340° |
| 2026-04-22 06:27 | 55.66742 | 17.13699 | 34483 ft | 438 kts | 339° |
| 2026-04-22 06:27 | 55.69474 | 17.11282 | 34815 ft | 439 kts | 338° |
| 2026-04-22 06:28 | 55.72200 | 17.08801 | 35141 ft | 439 kts | 337° |
| 2026-04-22 06:28 | 55.74883 | 17.06335 | 35443 ft | 438 kts | 337° |
| 2026-04-22 06:28 | 55.77598 | 17.03840 | 35777 ft | 438 kts | 337° |
| 2026-04-22 06:28 | 55.80307 | 17.01367 | 36102 ft | 437 kts | 337° |
| 2026-04-22 06:29 | 55.83014 | 16.98907 | 36409 ft | 437 kts | 337° |
| 2026-04-22 06:29 | 55.85732 | 16.96448 | 36703 ft | 437 kts | 338° |
| 2026-04-22 06:29 | 55.88419 | 16.94021 | 36988 ft | 437 kts | 337° |
| 2026-04-22 06:29 | 55.91137 | 16.91561 | 37260 ft | 437 kts | 337° |
| 2026-04-22 06:30 | 55.93854 | 16.89095 | 37514 ft | 437 kts | 337° |
| 2026-04-22 06:30 | 55.96559 | 16.86632 | 37749 ft | 437 kts | 337° |
| 2026-04-22 06:30 | 55.99271 | 16.84156 | 37995 ft | 437 kts | 337° |
| 2026-04-22 06:30 | 56.01952 | 16.81704 | 38182 ft | 438 kts | 337° |
| 2026-04-22 06:31 | 56.04662 | 16.79218 | 38227 ft | 438 kts | 337° |
| 2026-04-22 06:31 | 56.10060 | 16.74261 | 38223 ft | 437 kts | 337° |
| 2026-04-22 06:32 | 56.15474 | 16.69285 | 38220 ft | 437 kts | 337° |
| 2026-04-22 06:32 | 56.20893 | 16.64292 | 38223 ft | 437 kts | 337° |
| 2026-04-22 06:33 | 56.26313 | 16.59284 | 38220 ft | 437 kts | 337° |
| 2026-04-22 06:33 | 56.31699 | 16.54286 | 38220 ft | 438 kts | 337° |
| 2026-04-22 06:34 | 56.37118 | 16.49228 | 38236 ft | 438 kts | 337° |
| 2026-04-22 06:34 | 56.42518 | 16.44163 | 38238 ft | 439 kts | 337° |
| 2026-04-22 06:35 | 56.47937 | 16.39078 | 38248 ft | 439 kts | 337° |
| 2026-04-22 06:35 | 56.53370 | 16.33994 | 38225 ft | 439 kts | 337° |
| 2026-04-22 06:36 | 56.58789 | 16.28880 | 38222 ft | 439 kts | 337° |
| 2026-04-22 06:36 | 56.64180 | 16.23764 | 38233 ft | 439 kts | 337° |
| 2026-04-22 06:37 | 56.69601 | 16.18602 | 38238 ft | 439 kts | 337° |
| 2026-04-22 06:37 | 56.74112 | 16.14292 | 38240 ft | 439 kts | 337° |
| 2026-04-22 06:38 | 56.79544 | 16.09104 | 38243 ft | 439 kts | 337° |
| 2026-04-22 06:38 | 56.84922 | 16.03967 | 38249 ft | 439 kts | 337° |
| 2026-04-22 06:39 | 56.90339 | 15.98759 | 38218 ft | 438 kts | 337° |
| 2026-04-22 06:39 | 56.95746 | 15.93540 | 38241 ft | 438 kts | 337° |
| 2026-04-22 06:40 | 57.01121 | 15.88329 | 38249 ft | 439 kts | 337° |
| 2026-04-22 06:40 | 57.06500 | 15.83092 | 38258 ft | 439 kts | 337° |
| 2026-04-22 06:41 | 57.11906 | 15.77816 | 38273 ft | 439 kts | 337° |
| 2026-04-22 06:41 | 57.17311 | 15.72518 | 38268 ft | 439 kts | 337° |
| 2026-04-22 06:42 | 57.22686 | 15.67250 | 38255 ft | 439 kts | 337° |
| 2026-04-22 06:42 | 57.28090 | 15.61932 | 38246 ft | 439 kts | 337° |
| 2026-04-22 06:43 | 57.33494 | 15.56582 | 38252 ft | 440 kts | 337° |
| 2026-04-22 06:43 | 57.38867 | 15.51252 | 38264 ft | 441 kts | 337° |
| 2026-04-22 06:44 | 57.44279 | 15.45878 | 38285 ft | 441 kts | 337° |
| 2026-04-22 06:44 | 57.49694 | 15.40469 | 38285 ft | 441 kts | 337° |
| 2026-04-22 06:45 | 57.55108 | 15.35045 | 38276 ft | 441 kts | 337° |
| 2026-04-22 06:45 | 57.60485 | 15.29651 | 38293 ft | 441 kts | 337° |
| 2026-04-22 06:46 | 57.65906 | 15.24192 | 38258 ft | 442 kts | 337° |
| 2026-04-22 06:46 | 57.71325 | 15.18713 | 38267 ft | 442 kts | 337° |
| 2026-04-22 06:47 | 57.76716 | 15.13236 | 38281 ft | 443 kts | 337° |
| 2026-04-22 06:47 | 57.82137 | 15.07708 | 38288 ft | 443 kts | 337° |
| 2026-04-22 06:48 | 57.87550 | 15.02172 | 38291 ft | 443 kts | 337° |
| 2026-04-22 06:48 | 57.92926 | 14.96644 | 38305 ft | 443 kts | 337° |
| 2026-04-22 06:49 | 57.98351 | 14.91059 | 38297 ft | 443 kts | 337° |
| 2026-04-22 06:49 | 58.03771 | 14.85469 | 38280 ft | 443 kts | 337° |
| 2026-04-22 06:50 | 58.09153 | 14.79897 | 38293 ft | 443 kts | 337° |
| 2026-04-22 06:50 | 58.14362 | 14.74485 | 38298 ft | 444 kts | 336° |
| 2026-04-22 06:51 | 58.19768 | 14.68838 | 38288 ft | 451 kts | 337° |
| 2026-04-22 06:51 | 58.25326 | 14.63008 | 38299 ft | 459 kts | 337° |
| 2026-04-22 06:52 | 58.30939 | 14.57097 | 38294 ft | 461 kts | 337° |
| 2026-04-22 06:52 | 58.36568 | 14.51163 | 38280 ft | 462 kts | 337° |
| 2026-04-22 06:53 | 58.42155 | 14.45253 | 38275 ft | 462 kts | 337° |
| 2026-04-22 06:53 | 58.47786 | 14.39276 | 38252 ft | 463 kts | 336° |
| 2026-04-22 06:54 | 58.53416 | 14.33262 | 38257 ft | 463 kts | 337° |
| 2026-04-22 06:54 | 58.59048 | 14.27220 | 38296 ft | 463 kts | 337° |
| 2026-04-22 06:55 | 58.64638 | 14.21205 | 38309 ft | 463 kts | 337° |
| 2026-04-22 06:55 | 58.70254 | 14.15165 | 38324 ft | 462 kts | 337° |
| 2026-04-22 06:56 | 58.75848 | 14.09125 | 38334 ft | 462 kts | 337° |
| 2026-04-22 06:56 | 58.81451 | 14.03020 | 38336 ft | 463 kts | 337° |
| 2026-04-22 06:57 | 58.87046 | 13.96914 | 38307 ft | 462 kts | 337° |
| 2026-04-22 06:57 | 58.92665 | 13.90772 | 38330 ft | 462 kts | 337° |
| 2026-04-22 06:58 | 58.98275 | 13.84609 | 38335 ft | 462 kts | 337° |
| 2026-04-22 06:58 | 59.03839 | 13.78455 | 38337 ft | 462 kts | 336° |
| 2026-04-22 06:59 | 59.09441 | 13.72248 | 38337 ft | 462 kts | 336° |
| 2026-04-22 06:59 | 59.15033 | 13.66033 | 38336 ft | 462 kts | 336° |
| 2026-04-22 07:00 | 59.20596 | 13.59823 | 38321 ft | 462 kts | 336° |
| 2026-04-22 07:00 | 59.26174 | 13.53565 | 38313 ft | 461 kts | 336° |
| 2026-04-22 07:01 | 59.31722 | 13.47332 | 38326 ft | 461 kts | 336° |
| 2026-04-22 07:01 | 59.37304 | 13.41041 | 38325 ft | 461 kts | 336° |
| 2026-04-22 07:02 | 59.42840 | 13.34763 | 38322 ft | 461 kts | 336° |
| 2026-04-22 07:02 | 59.48407 | 13.28568 | 38324 ft | 460 kts | 338° |
| 2026-04-22 07:03 | 59.54061 | 13.22636 | 38323 ft | 459 kts | 339° |
| 2026-04-22 07:03 | 59.59715 | 13.16746 | 38331 ft | 458 kts | 338° |
| 2026-04-22 07:04 | 59.65302 | 13.10804 | 38313 ft | 459 kts | 338° |
| 2026-04-22 07:04 | 59.70917 | 13.04749 | 38322 ft | 459 kts | 338° |
| 2026-04-22 07:05 | 59.76543 | 12.98663 | 38328 ft | 460 kts | 338° |
| 2026-04-22 07:05 | 59.82136 | 12.92616 | 38331 ft | 460 kts | 338° |
| 2026-04-22 07:06 | 59.87764 | 12.86503 | 38327 ft | 460 kts | 337° |
| 2026-04-22 07:06 | 59.93381 | 12.80366 | 38330 ft | 460 kts | 337° |
| 2026-04-22 07:07 | 59.99008 | 12.74211 | 38331 ft | 460 kts | 337° |
| 2026-04-22 07:07 | 60.04596 | 12.68076 | 38333 ft | 460 kts | 337° |
| 2026-04-22 07:08 | 60.10213 | 12.61884 | 38324 ft | 460 kts | 337° |
| 2026-04-22 07:08 | 60.15669 | 12.55207 | 38302 ft | 468 kts | 326° |
| 2026-04-22 07:08 | 60.18019 | 12.50619 | 38325 ft | 476 kts | 315° |
| 2026-04-22 07:09 | 60.19948 | 12.45136 | 38321 ft | 484 kts | 304° |
| 2026-04-22 07:09 | 60.23082 | 12.33064 | 38340 ft | 486 kts | 302° |
| 2026-04-22 07:10 | 60.26175 | 12.21029 | 38342 ft | 486 kts | 302° |
| 2026-04-22 07:10 | 60.29294 | 12.08881 | 38322 ft | 486 kts | 302° |
| 2026-04-22 07:11 | 60.32397 | 11.96734 | 38334 ft | 487 kts | 302° |
| 2026-04-22 07:11 | 60.35474 | 11.84611 | 38338 ft | 487 kts | 302° |
| 2026-04-22 07:12 | 60.38551 | 11.72403 | 38346 ft | 487 kts | 301° |
| 2026-04-22 07:12 | 60.41623 | 11.60157 | 38348 ft | 488 kts | 301° |
| 2026-04-22 07:13 | 60.44656 | 11.47948 | 38321 ft | 488 kts | 301° |
| 2026-04-22 07:13 | 60.47712 | 11.35620 | 38334 ft | 489 kts | 301° |
| 2026-04-22 07:14 | 60.50749 | 11.23302 | 38338 ft | 489 kts | 301° |
| 2026-04-22 07:14 | 60.53791 | 11.10893 | 38340 ft | 489 kts | 301° |
| 2026-04-22 07:15 | 60.56821 | 10.98483 | 38345 ft | 490 kts | 300° |
| 2026-04-22 07:15 | 60.59820 | 10.86094 | 38326 ft | 490 kts | 300° |
| 2026-04-22 07:16 | 60.62823 | 10.73623 | 38343 ft | 490 kts | 300° |
| 2026-04-22 07:16 | 60.65816 | 10.61127 | 38347 ft | 490 kts | 300° |
| 2026-04-22 07:17 | 60.68783 | 10.48701 | 38352 ft | 490 kts | 300° |
| 2026-04-22 07:17 | 60.71753 | 10.36182 | 38343 ft | 490 kts | 300° |
| 2026-04-22 07:18 | 60.74697 | 10.23682 | 38333 ft | 490 kts | 299° |
| 2026-04-22 07:18 | 60.77632 | 10.11101 | 38337 ft | 490 kts | 299° |
| 2026-04-22 07:19 | 60.81440 | 9.99716 | 38335 ft | 478 kts | 320° |
| 2026-04-22 07:19 | 60.86724 | 9.92026 | 38339 ft | 463 kts | 341° |
| 2026-04-22 07:20 | 60.92805 | 9.88248 | 38354 ft | 454 kts | 352° |
| 2026-04-22 07:20 | 60.98950 | 9.85286 | 38343 ft | 455 kts | 352° |
| 2026-04-22 07:21 | 61.05114 | 9.82260 | 38354 ft | 455 kts | 351° |
| 2026-04-22 07:21 | 61.11032 | 9.79330 | 38368 ft | 455 kts | 351° |
| 2026-04-22 07:22 | 61.17163 | 9.76282 | 38375 ft | 455 kts | 351° |
| 2026-04-22 07:22 | 61.23332 | 9.73213 | 38381 ft | 456 kts | 351° |
| 2026-04-22 07:23 | 61.29477 | 9.69654 | 38383 ft | 462 kts | 341° |
| 2026-04-22 07:23 | 61.35180 | 9.63392 | 38369 ft | 463 kts | 336° |
| 2026-04-22 07:23 | 61.37998 | 9.60146 | 37683 ft | 464 kts | 336° |
| 2026-04-22 07:24 | 61.40829 | 9.56881 | 37180 ft | 461 kts | 336° |
| 2026-04-22 07:24 | 61.43637 | 9.53638 | 36612 ft | 459 kts | 337° |
| 2026-04-22 07:24 | 61.46325 | 9.50107 | 35953 ft | 465 kts | 331° |
| 2026-04-22 07:24 | 61.48961 | 9.46158 | 35291 ft | 467 kts | 331° |
| 2026-04-22 07:25 | 61.51585 | 9.42192 | 34823 ft | 464 kts | 332° |
| 2026-04-22 07:25 | 61.54203 | 9.38221 | 34296 ft | 462 kts | 332° |
| 2026-04-22 07:25 | 61.55928 | 9.35601 | 33919 ft | 461 kts | 332° |
| 2026-04-22 07:25 | 61.58524 | 9.31661 | 33402 ft | 456 kts | 332° |
| 2026-04-22 07:26 | 61.61919 | 9.26499 | 32714 ft | 451 kts | 331° |
| 2026-04-22 07:26 | 61.63634 | 9.23887 | 32384 ft | 448 kts | 331° |
| 2026-04-22 07:26 | 61.66119 | 9.20102 | 31878 ft | 444 kts | 331° |
| 2026-04-22 07:26 | 61.68618 | 9.16294 | 31388 ft | 441 kts | 330° |
| 2026-04-22 07:27 | 61.71094 | 9.12514 | 30884 ft | 438 kts | 330° |
| 2026-04-22 07:27 | 61.73555 | 9.08745 | 30366 ft | 435 kts | 330° |
| 2026-04-22 07:27 | 61.75996 | 9.04998 | 29854 ft | 431 kts | 330° |
| 2026-04-22 07:27 | 61.78407 | 9.01286 | 29373 ft | 426 kts | 329° |
| 2026-04-22 07:28 | 61.83141 | 8.93977 | 28449 ft | 416 kts | 329° |
| 2026-04-22 07:28 | 61.85468 | 8.90372 | 28015 ft | 412 kts | 329° |
| 2026-04-22 07:28 | 61.87743 | 8.86836 | 27587 ft | 407 kts | 329° |
| 2026-04-22 07:29 | 61.90025 | 8.83286 | 27178 ft | 403 kts | 329° |
| 2026-04-22 07:29 | 61.92279 | 8.79776 | 26765 ft | 399 kts | 328° |
| 2026-04-22 07:29 | 61.94513 | 8.76286 | 26348 ft | 397 kts | 328° |
| 2026-04-22 07:29 | 61.96731 | 8.72819 | 25934 ft | 393 kts | 328° |
| 2026-04-22 07:30 | 61.98906 | 8.69411 | 25528 ft | 391 kts | 328° |
| 2026-04-22 07:30 | 62.01087 | 8.65985 | 25114 ft | 388 kts | 328° |
| 2026-04-22 07:30 | 62.03260 | 8.62565 | 24712 ft | 386 kts | 327° |
| 2026-04-22 07:30 | 62.05389 | 8.59214 | 24305 ft | 384 kts | 327° |
| 2026-04-22 07:31 | 62.07540 | 8.55832 | 23853 ft | 382 kts | 327° |
| 2026-04-22 07:31 | 62.09679 | 8.52460 | 23395 ft | 379 kts | 327° |
| 2026-04-22 07:31 | 62.11790 | 8.49115 | 22956 ft | 375 kts | 327° |
| 2026-04-22 07:31 | 62.13875 | 8.45803 | 22522 ft | 372 kts | 327° |
| 2026-04-22 07:32 | 62.15917 | 8.42553 | 22100 ft | 368 kts | 326° |
| 2026-04-22 07:32 | 62.17962 | 8.39278 | 21677 ft | 365 kts | 324° |
| 2026-04-22 07:32 | 62.19799 | 8.35520 | 21245 ft | 365 kts | 313° |
| 2026-04-22 07:32 | 62.21250 | 8.31031 | 20820 ft | 366 kts | 301° |
| 2026-04-22 07:33 | 62.22394 | 8.26257 | 20405 ft | 363 kts | 300° |
| 2026-04-22 07:33 | 62.23540 | 8.21426 | 19992 ft | 360 kts | 300° |
| 2026-04-22 07:33 | 62.24668 | 8.16651 | 19584 ft | 357 kts | 300° |
| 2026-04-22 07:33 | 62.25786 | 8.11913 | 19199 ft | 354 kts | 299° |
| 2026-04-22 07:34 | 62.26892 | 8.07223 | 18796 ft | 351 kts | 299° |
| 2026-04-22 07:34 | 62.27992 | 8.02548 | 18341 ft | 347 kts | 300° |
| 2026-04-22 07:34 | 62.29060 | 7.97996 | 17879 ft | 344 kts | 299° |
| 2026-04-22 07:34 | 62.30132 | 7.93416 | 17444 ft | 342 kts | 299° |
| 2026-04-22 07:35 | 62.31194 | 7.88865 | 17005 ft | 339 kts | 298° |
| 2026-04-22 07:35 | 62.32236 | 7.84379 | 16731 ft | 332 kts | 298° |
| 2026-04-22 07:35 | 62.33265 | 7.79948 | 16320 ft | 329 kts | 298° |
| 2026-04-22 07:35 | 62.34284 | 7.75570 | 15896 ft | 326 kts | 298° |
| 2026-04-22 07:36 | 62.35295 | 7.71218 | 15506 ft | 323 kts | 298° |
| 2026-04-22 07:36 | 62.36295 | 7.66890 | 15101 ft | 321 kts | 298° |
| 2026-04-22 07:36 | 62.37286 | 7.62598 | 14701 ft | 319 kts | 298° |
| 2026-04-22 07:36 | 62.38273 | 7.58325 | 14322 ft | 316 kts | 298° |
| 2026-04-22 07:37 | 62.39268 | 7.54121 | 13901 ft | 312 kts | 298° |
| 2026-04-22 07:37 | 62.40258 | 7.50054 | 13526 ft | 307 kts | 299° |
| 2026-04-22 07:37 | 62.41250 | 7.46010 | 13149 ft | 303 kts | 299° |
| 2026-04-22 07:37 | 62.42228 | 7.42024 | 12785 ft | 298 kts | 299° |
| 2026-04-22 07:38 | 62.43191 | 7.38084 | 12419 ft | 295 kts | 299° |
| 2026-04-22 07:38 | 62.44144 | 7.34167 | 12045 ft | 292 kts | 299° |
| 2026-04-22 07:38 | 62.45079 | 7.30295 | 11690 ft | 289 kts | 299° |
| 2026-04-22 07:38 | 62.45999 | 7.26464 | 11352 ft | 286 kts | 299° |
| 2026-04-22 07:39 | 62.46912 | 7.22658 | 11004 ft | 283 kts | 299° |
| 2026-04-22 07:39 | 62.47818 | 7.18883 | 10653 ft | 282 kts | 299° |
| 2026-04-22 07:39 | 62.48696 | 7.15222 | 10551 ft | 275 kts | 299° |
| 2026-04-22 07:39 | 62.49581 | 7.11523 | 10396 ft | 277 kts | 299° |
| 2026-04-22 07:40 | 62.50475 | 7.07778 | 9901 ft | 278 kts | 298° |
| 2026-04-22 07:40 | 62.51358 | 7.04072 | 9443 ft | 278 kts | 298° |
| 2026-04-22 07:40 | 62.52225 | 7.00426 | 8861 ft | 268 kts | 298° |
| 2026-04-22 07:40 | 62.53060 | 6.96904 | 8376 ft | 265 kts | 298° |
| 2026-04-22 07:41 | 62.53896 | 6.93370 | 7913 ft | 263 kts | 298° |
| 2026-04-22 07:41 | 62.54726 | 6.89854 | 7459 ft | 261 kts | 298° |
| 2026-04-22 07:41 | 62.55545 | 6.86382 | 7002 ft | 254 kts | 298° |
| 2026-04-22 07:41 | 62.56318 | 6.83109 | 6735 ft | 235 kts | 298° |
| 2026-04-22 07:42 | 62.57039 | 6.80049 | 6542 ft | 224 kts | 298° |
| 2026-04-22 07:42 | 62.57751 | 6.77044 | 6411 ft | 225 kts | 298° |
| 2026-04-22 07:42 | 62.58460 | 6.74034 | 6001 ft | 225 kts | 297° |
| 2026-04-22 07:42 | 62.59156 | 6.71018 | 5559 ft | 223 kts | 297° |
| 2026-04-22 07:43 | 62.59846 | 6.68010 | 5126 ft | 222 kts | 297° |
| 2026-04-22 07:43 | 62.60530 | 6.65014 | 4713 ft | 222 kts | 297° |
| 2026-04-22 07:43 | 62.61215 | 6.62020 | 4293 ft | 221 kts | 297° |
| 2026-04-22 07:43 | 62.61905 | 6.59009 | 3892 ft | 224 kts | 297° |
| 2026-04-22 07:44 | 62.62585 | 6.56041 | 3804 ft | 210 kts | 296° |
| 2026-04-22 07:44 | 62.63211 | 6.53293 | 3744 ft | 196 kts | 296° |
| 2026-04-22 07:44 | 62.63742 | 6.50599 | 3671 ft | 193 kts | 284° |
| 2026-04-22 07:44 | 62.63818 | 6.47693 | 3597 ft | 195 kts | 262° |
| 2026-04-22 07:45 | 62.63378 | 6.44923 | 3391 ft | 195 kts | 246° |
| 2026-04-22 07:45 | 62.62813 | 6.42304 | 3147 ft | 193 kts | 246° |
| 2026-04-22 07:45 | 62.62245 | 6.39664 | 2891 ft | 192 kts | 246° |
| 2026-04-22 07:45 | 62.61681 | 6.37046 | 2617 ft | 192 kts | 245° |
| 2026-04-22 07:46 | 62.61124 | 6.34466 | 2373 ft | 184 kts | 245° |
| 2026-04-22 07:46 | 62.60599 | 6.32031 | 2101 ft | 172 kts | 245° |
| 2026-04-22 07:46 | 62.60112 | 6.29782 | 1868 ft | 157 kts | 245° |
| 2026-04-22 07:46 | 62.59677 | 6.27772 | 1671 ft | 141 kts | 245° |
| 2026-04-22 07:47 | 62.59267 | 6.25879 | 1455 ft | 137 kts | 245° |
| 2026-04-22 07:47 | 62.58865 | 6.24025 | 1244 ft | 135 kts | 245° |
| 2026-04-22 07:47 | 62.58465 | 6.22178 | 1051 ft | 135 kts | 245° |
| 2026-04-22 07:47 | 62.58062 | 6.20324 | 856 ft | 135 kts | 245° |
| 2026-04-22 07:48 | 62.57662 | 6.18483 | 690 ft | 133 kts | 245° |
| 2026-04-22 07:48 | 62.57278 | 6.16715 | 517 ft | 130 kts | 244° |
| 2026-04-22 07:48 | 62.56891 | 6.14939 | 335 ft | 130 kts | 244° |
| 2026-04-22 07:48 | 62.56512 | 6.13168 | 175 ft | 129 kts | 244° |
| 2026-04-22 07:49 | 62.56135 | 6.11454 | 65 ft | 115 kts | 245° |
| 2026-04-22 07:49 | 62.55858 | 6.10181 | 60 ft | 69 kts | 245° |
| 2026-04-22 07:49 | 62.55717 | 6.09519 | 58 ft | 33 kts | 245° |
| 2026-04-22 07:49 | 62.55634 | 6.09190 | 59 ft | 22 kts | 227° |
| 2026-04-22 07:50 | 62.55595 | 6.09040 | 58 ft | 12 kts | 319° |
| 2026-04-22 07:50 | 62.55652 | 6.09201 | 55 ft | 20 kts | 70° |
| 2026-04-22 07:50 | 62.55702 | 6.09458 | 57 ft | 19 kts | 66° |
| 2026-04-22 07:50 | 62.55759 | 6.09722 | 63 ft | 18 kts | 65° |
| 2026-04-22 07:51 | 62.55814 | 6.09972 | 59 ft | 19 kts | 64° |
| 2026-04-22 07:51 | 62.55862 | 6.10194 | 63 ft | 17 kts | 64° |
| 2026-04-22 07:51 | 62.55912 | 6.10426 | 59 ft | 15 kts | 65° |
| 2026-04-22 07:51 | 62.55950 | 6.10615 | 59 ft | 12 kts | 83° |
| 2026-04-22 07:52 | 62.55933 | 6.10782 | 64 ft | 12 kts | 107° |
| 2026-04-22 07:52 | 62.55908 | 6.10971 | 64 ft | 14 kts | 104° |
| 2026-04-22 07:52 | 62.55900 | 6.11132 | 59 ft | 9 kts | 79° |
| 2026-04-22 07:52 | 62.55926 | 6.11257 | 63 ft | 10 kts | 64° |
| 2026-04-22 07:53 | 62.55953 | 6.11380 | 67 ft | 8 kts | 65° |
| 2026-04-22 07:53 | 62.55966 | 6.11497 | 65 ft | 7 kts | 115° |
| 2026-04-22 07:53 | 62.55939 | 6.11533 | 66 ft | 3 kts | 153° |
| 2026-04-22 07:53 | 62.55939 | 6.11534 | 69 ft | 0 kts | 153° |